Time;durP1;ratioP1;P1;durP2;ratioP2;P2;SDS_P1;SDS_P2;PMS_P1;PMS_P2;Temp;Humidity;BMP_temperature;BMP_pressure;BME280_temperature;BME280_humidity;BME280_pressure;Samples;Min_cycle;Max_cycle;Signal;HPM_P1;HPM_P2
2020/12/17 00:00:28;;;;;;;102.47;51.63;;;;;;;4.71;75.98;99723.06;2264716;78;21415;-80
2020/12/17 00:03:31;;;;;;;102.30;53.07;;;;;;;4.69;76.05;99730.27;2264770;78;21442;-81
2020/12/17 00:06:32;;;;;;;113.10;55.63;;;;;;;4.68;76.14;99729.78;2265087;78;21129;-80
2020/12/17 00:09:33;;;;;;;102.63;50.50;;;;;;;4.66;76.13;99727.53;2264932;78;21560;-81
2020/12/17 00:12:34;;;;;;;107.23;52.97;;;;;;;4.62;76.07;99726.48;2265010;78;21164;-82
2020/12/17 00:15:35;;;;;;;109.47;56.43;;;;;;;4.61;76.11;99728.59;2265455;78;21399;-80
2020/12/17 00:18:42;;;;;;;118.83;59.13;;;;;;;4.61;76.12;99725.13;2265434;78;21133;-81
2020/12/17 00:21:43;;;;;;;110.27;57.00;;;;;;;4.62;76.19;99724.31;2265322;78;21090;-79
2020/12/17 00:24:44;;;;;;;124.43;60.30;;;;;;;4.62;76.69;99725.60;2265109;78;21344;-79
2020/12/17 00:27:45;;;;;;;120.27;59.17;;;;;;;4.65;76.28;99728.34;2265044;78;21113;-78
2020/12/17 00:30:47;;;;;;;117.07;57.60;;;;;;;4.62;76.26;99722.61;2265251;78;21129;-78
2020/12/17 00:33:48;;;;;;;124.60;61.10;;;;;;;4.59;76.30;99720.28;2264567;78;21186;-78
2020/12/17 00:36:49;;;;;;;124.77;60.97;;;;;;;4.60;76.27;99723.34;2264156;78;21082;-78
2020/12/17 00:39:50;;;;;;;122.00;62.27;;;;;;;4.62;76.35;99721.72;2264373;78;21129;-78
2020/12/17 00:42:51;;;;;;;122.70;60.97;;;;;;;4.65;76.41;99716.70;2264484;78;21378;-79
2020/12/17 00:45:52;;;;;;;113.07;57.63;;;;;;;4.68;76.43;99722.02;2264579;78;21089;-77
2020/12/17 00:48:54;;;;;;;117.97;61.27;;;;;;;4.69;76.39;99728.97;2263675;78;21117;-77
2020/12/17 00:51:55;;;;;;;119.30;61.47;;;;;;;4.70;76.36;99721.69;2263502;78;21129;-77
2020/12/17 00:54:56;;;;;;;113.30;56.40;;;;;;;4.70;76.32;99729.45;2263453;78;21173;-77
2020/12/17 00:57:57;;;;;;;106.50;54.33;;;;;;;4.70;76.24;99732.92;2263973;78;21113;-78
2020/12/17 01:00:58;;;;;;;105.23;56.37;;;;;;;4.71;76.27;99728.64;2264209;78;21161;-78
2020/12/17 01:03:59;;;;;;;101.90;53.17;;;;;;;4.70;76.19;99726.86;2263865;78;21133;-78
2020/12/17 01:07:00;;;;;;;111.50;57.70;;;;;;;4.70;76.29;99725.16;2263977;78;21137;-78
2020/12/17 01:10:02;;;;;;;102.90;54.30;;;;;;;4.68;76.27;99719.03;2263382;78;21486;-77
2020/12/17 01:13:03;;;;;;;93.80;48.07;;;;;;;4.65;76.29;99721.88;2263768;78;21279;-78
2020/12/17 01:16:04;;;;;;;106.17;53.00;;;;;;;4.64;76.34;99718.40;2264454;78;21145;-77
2020/12/17 01:19:05;;;;;;;116.33;56.67;;;;;;;4.66;76.29;99721.06;2264344;78;21144;-78
2020/12/17 01:22:06;;;;;;;128.57;60.60;;;;;;;4.66;76.25;99721.06;2264515;78;21113;-79
2020/12/17 01:25:07;;;;;;;121.07;60.13;;;;;;;4.65;76.29;99716.70;2264566;78;21407;-80
2020/12/17 01:28:08;;;;;;;135.07;63.90;;;;;;;4.66;76.39;99719.36;2265011;78;21117;-79
2020/12/17 01:31:09;;;;;;;132.07;62.50;;;;;;;4.64;76.40;99714.92;2265097;78;21126;-80
2020/12/17 01:34:13;;;;;;;137.13;61.07;;;;;;;4.62;76.40;99715.26;2265594;78;21152;-81
2020/12/17 01:37:15;;;;;;;135.65;61.08;;;;;;;4.60;76.46;99720.77;2265100;78;21129;-79
2020/12/17 01:40:15;;;;;;;143.10;63.80;;;;;;;4.61;76.50;99723.42;2264899;78;21137;-80
2020/12/17 01:43:17;;;;;;;136.40;64.53;;;;;;;4.63;76.53;99719.62;2265235;78;21149;-80
2020/12/17 01:46:20;;;;;;;138.50;64.20;;;;;;;4.64;76.55;99717.52;2265149;79;21140;-81
2020/12/17 01:49:21;;;;;;;146.73;62.43;;;;;;;4.67;76.64;99716.38;2265159;79;21125;-80
2020/12/17 01:52:25;;;;;;;142.57;64.77;;;;;;;4.67;76.57;99714.67;2265101;78;21129;-81
2020/12/17 01:55:26;;;;;;;128.83;57.83;;;;;;;4.67;76.58;99712.49;2265507;79;21283;-79
2020/12/17 01:58:27;;;;;;;127.60;59.43;;;;;;;4.65;76.52;99710.23;2265176;79;21262;-79
2020/12/17 02:01:28;;;;;;;122.90;60.27;;;;;;;4.65;76.58;99718.00;2265319;78;21532;-80
2020/12/17 02:04:29;;;;;;;125.90;57.20;;;;;;;4.65;76.66;99711.53;2265328;78;21402;-79
2020/12/17 02:07:30;;;;;;;132.13;59.77;;;;;;;4.65;76.67;99713.71;2265673;78;21666;-80
2020/12/17 02:10:31;;;;;;;140.17;60.20;;;;;;;4.62;76.71;99708.39;2265128;78;21662;-79
2020/12/17 02:13:32;;;;;;;127.80;60.70;;;;;;;4.58;76.78;99705.17;2265283;78;21180;-77
2020/12/17 02:16:34;;;;;;;128.90;54.17;;;;;;;4.58;76.91;99708.16;2265138;78;21094;-77
2020/12/17 02:19:35;;;;;;;134.20;59.07;;;;;;;4.58;77.07;99707.75;2265009;78;21411;-78
2020/12/17 02:22:36;;;;;;;129.47;58.93;;;;;;;4.58;76.92;99713.34;2265009;78;21089;-77
2020/12/17 02:25:37;;;;;;;135.33;58.57;;;;;;;4.57;76.97;99712.85;2265056;78;21125;-78
2020/12/17 02:28:38;;;;;;;142.03;60.23;;;;;;;4.58;77.02;99710.75;2261229;78;21462;-78
2020/12/17 02:31:39;;;;;;;136.93;62.20;;;;;;;4.60;77.06;99708.72;2261100;78;21085;-78
2020/12/17 02:34:42;;;;;;;130.00;60.33;;;;;;;4.58;77.04;99709.05;2260993;78;21164;-77
2020/12/17 02:37:43;;;;;;;127.40;59.67;;;;;;;4.57;77.03;99710.27;2261234;78;21125;-78
2020/12/17 02:40:44;;;;;;;142.90;56.97;;;;;;;4.56;77.15;99707.20;2261181;79;21097;-78
2020/12/17 02:43:45;;;;;;;125.70;57.47;;;;;;;4.56;77.18;99705.91;2261087;78;21557;-78
2020/12/17 02:46:46;;;;;;;128.70;57.03;;;;;;;4.58;77.17;99701.70;2261111;78;21117;-77
2020/12/17 02:49:47;;;;;;;127.93;58.37;;;;;;;4.59;77.13;99698.30;2261293;78;21388;-79
2020/12/17 02:52:48;;;;;;;131.17;58.10;;;;;;;4.61;77.14;99701.84;2261113;78;21130;-77
2020/12/17 02:55:49;;;;;;;135.33;59.87;;;;;;;4.62;77.14;99703.63;2261137;78;21121;-78
2020/12/17 02:58:50;;;;;;;139.60;56.43;;;;;;;4.62;77.16;99699.74;2261124;78;21411;-78
2020/12/17 03:01:51;;;;;;;131.47;59.20;;;;;;;4.57;77.12;99696.94;2260317;78;21081;-76
2020/12/17 03:04:52;;;;;;;130.83;55.63;;;;;;;4.57;77.28;99700.81;2260953;78;21117;-77
2020/12/17 03:07:54;;;;;;;135.97;57.10;;;;;;;4.56;77.23;99691.28;2261086;78;21109;-78
2020/12/17 03:10:55;;;;;;;131.07;58.13;;;;;;;4.58;77.19;99692.65;2260933;78;21157;-79
2020/12/17 03:13:56;;;;;;;131.17;57.33;;;;;;;4.58;77.10;99700.00;2261168;78;21165;-78
2020/12/17 03:16:57;;;;;;;143.80;60.83;;;;;;;4.57;77.12;99697.34;2260565;79;21160;-79
2020/12/17 03:19:58;;;;;;;132.80;58.47;;;;;;;4.56;77.18;99699.44;2260288;78;21117;-79
2020/12/17 03:22:59;;;;;;;138.50;58.47;;;;;;;4.56;77.18;99700.33;2261148;78;21160;-81
2020/12/17 03:26:00;;;;;;;129.33;55.43;;;;;;;4.54;77.17;99700.66;2260258;78;21470;-80
2020/12/17 03:29:01;;;;;;;127.83;58.87;;;;;;;4.53;77.20;99696.71;2264328;78;21161;-80
2020/12/17 03:32:02;;;;;;;129.43;59.87;;;;;;;4.55;77.16;99696.37;2265177;78;21133;-81
2020/12/17 03:35:03;;;;;;;146.23;66.93;;;;;;;4.55;77.17;99698.96;2265055;79;21180;-80
2020/12/17 03:38:04;;;;;;;142.23;67.07;;;;;;;4.58;77.13;99701.70;2265225;78;21731;-78
2020/12/17 03:41:06;;;;;;;137.20;58.70;;;;;;;4.59;77.12;99697.89;2264942;78;21414;-81
2020/12/17 03:44:07;;;;;;;129.43;62.33;;;;;;;4.59;77.08;99703.47;2264821;78;21129;-79
2020/12/17 03:47:10;;;;;;;141.37;63.03;;;;;;;4.56;77.04;99711.97;2265261;78;21093;-79
2020/12/17 03:50:11;;;;;;;131.27;57.80;;;;;;;4.55;77.10;99704.14;2264880;79;21251;-80
2020/12/17 03:53:12;;;;;;;132.03;57.77;;;;;;;4.55;77.14;99708.91;2265061;78;21189;-79
2020/12/17 03:56:13;;;;;;;135.67;59.73;;;;;;;4.58;77.06;99713.34;2265022;78;21133;-79
2020/12/17 03:59:14;;;;;;;130.63;59.03;;;;;;;4.56;76.95;99709.38;2265193;78;21133;-78
2020/12/17 04:02:15;;;;;;;128.20;57.77;;;;;;;4.53;76.98;99714.40;2264818;78;21388;-79
2020/12/17 04:05:16;;;;;;;133.10;58.43;;;;;;;4.50;77.06;99715.95;2264921;78;21116;-80
2020/12/17 04:08:17;;;;;;;135.77;59.80;;;;;;;4.48;77.10;99714.58;2264776;78;21125;-79
2020/12/17 04:11:18;;;;;;;116.40;53.00;;;;;;;4.51;77.22;99711.26;2264668;78;21090;-80
2020/12/17 04:14:19;;;;;;;117.73;54.00;;;;;;;4.51;77.15;99708.27;2265093;78;21165;-80
2020/12/17 04:17:21;;;;;;;123.17;55.67;;;;;;;4.55;77.14;99711.89;2265289;78;21403;-80
2020/12/17 04:20:22;;;;;;;126.47;58.77;;;;;;;4.57;77.08;99712.85;2264507;78;21129;-79
2020/12/17 04:23:23;;;;;;;122.10;55.70;;;;;;;4.57;77.02;99712.45;2264327;78;21117;-78
2020/12/17 04:26:24;;;;;;;130.73;57.60;;;;;;;4.57;77.02;99708.57;2264195;78;21240;-79
2020/12/17 04:29:25;;;;;;;114.20;52.70;;;;;;;4.54;77.07;99707.53;2259816;78;21149;-79
2020/12/17 04:32:26;;;;;;;127.73;56.73;;;;;;;4.52;77.01;99703.98;2259670;78;21846;-79
2020/12/17 04:35:27;;;;;;;131.03;59.23;;;;;;;4.51;76.97;99712.55;2260004;79;21303;-79
2020/12/17 04:38:28;;;;;;;128.67;56.07;;;;;;;4.52;77.10;99710.45;2258677;78;21093;-78
2020/12/17 04:41:29;;;;;;;133.23;59.27;;;;;;;4.56;77.13;99707.20;2258356;79;21169;-79
2020/12/17 04:44:30;;;;;;;139.17;58.87;;;;;;;4.53;77.11;99713.52;2259106;78;21117;-80
2020/12/17 04:47:32;;;;;;;128.50;54.87;;;;;;;4.51;77.13;99718.61;2259496;79;21478;-79
2020/12/17 04:50:33;;;;;;;123.67;52.00;;;;;;;4.47;77.17;99718.86;2259235;78;21141;-79
2020/12/17 04:53:34;;;;;;;128.33;56.23;;;;;;;4.46;77.22;99725.25;2258735;78;21588;-81
2020/12/17 04:56:35;;;;;;;131.07;55.53;;;;;;;4.41;77.18;99723.73;2259018;78;21110;-80
2020/12/17 04:59:36;;;;;;;128.87;57.47;;;;;;;4.40;77.26;99721.95;2258092;78;21252;-80
2020/12/17 05:02:37;;;;;;;132.13;56.33;;;;;;;4.43;77.35;99718.64;2258153;78;21125;-80
2020/12/17 05:05:38;;;;;;;135.57;56.93;;;;;;;4.46;77.38;99724.84;2258747;78;21118;-80
2020/12/17 05:08:39;;;;;;;137.50;57.00;;;;;;;4.49;77.29;99724.11;2258670;78;21121;-80
2020/12/17 05:11:40;;;;;;;121.20;52.37;;;;;;;4.45;77.28;99729.53;2259116;78;21463;-79
2020/12/17 05:14:41;;;;;;;123.40;54.10;;;;;;;4.44;77.37;99727.77;2258361;78;21601;-79
2020/12/17 05:17:42;;;;;;;125.13;53.40;;;;;;;4.50;77.37;99733.64;2258017;78;21125;-80
2020/12/17 05:20:43;;;;;;;123.37;56.17;;;;;;;4.54;77.31;99742.03;2259030;79;21410;-80
2020/12/17 05:23:44;;;;;;;129.33;55.10;;;;;;;4.53;77.25;99738.97;2257291;78;21105;-78
2020/12/17 05:26:45;;;;;;;133.00;55.43;;;;;;;4.54;77.28;99738.16;2257727;78;21798;-79
2020/12/17 05:29:46;;;;;;;132.63;56.00;;;;;;;4.53;77.28;99740.26;2258466;78;21145;-79
2020/12/17 05:32:47;;;;;;;130.13;53.13;;;;;;;4.53;77.30;99736.38;2258814;78;21102;-79
2020/12/17 05:35:48;;;;;;;122.63;53.43;;;;;;;4.53;77.21;99739.38;2258905;78;21612;-78
2020/12/17 05:38:50;;;;;;;143.03;59.00;;;;;;;4.52;77.23;99733.31;2257548;78;21137;-79
2020/12/17 05:41:51;;;;;;;134.50;57.33;;;;;;;4.57;77.33;99727.08;2258549;78;21141;-79
2020/12/17 05:44:52;;;;;;;126.90;56.20;;;;;;;4.60;77.30;99725.94;2258128;78;21854;-79
2020/12/17 05:47:53;;;;;;;170.13;83.37;;;;;;;4.62;77.24;99729.48;2258034;78;21145;-79
2020/12/17 05:50:54;;;;;;;144.50;62.20;;;;;;;4.63;77.20;99736.02;2258329;78;21121;-79
2020/12/17 05:53:55;;;;;;;138.20;58.60;;;;;;;4.61;77.16;99729.00;2258304;78;21296;-80
2020/12/17 05:56:56;;;;;;;126.30;53.80;;;;;;;4.59;77.21;99737.98;2260283;78;21133;-76
2020/12/17 05:59:57;;;;;;;133.90;56.83;;;;;;;4.57;77.24;99733.13;2256656;78;21141;-78
2020/12/17 06:02:58;;;;;;;130.20;55.70;;;;;;;4.59;77.23;99735.80;2257766;78;21145;-79
2020/12/17 06:05:59;;;;;;;136.30;58.10;;;;;;;4.55;77.14;99736.45;2256986;78;21271;-76
2020/12/17 06:09:00;;;;;;;128.93;56.97;;;;;;;4.53;77.24;99740.66;2256919;78;21101;-76
2020/12/17 06:12:01;;;;;;;133.63;56.17;;;;;;;4.48;77.22;99733.97;2257694;78;21263;-77
2020/12/17 06:15:02;;;;;;;140.23;55.63;;;;;;;4.44;77.33;99729.05;2257342;78;21284;-77
2020/12/17 06:18:04;;;;;;;119.40;50.73;;;;;;;4.44;77.43;99730.34;2257862;79;21125;-77
2020/12/17 06:21:05;;;;;;;112.47;51.80;;;;;;;4.41;77.37;99732.78;2257765;78;21392;-76
2020/12/17 06:24:06;;;;;;;117.30;52.37;;;;;;;4.42;77.42;99735.84;2257129;78;21152;-77
2020/12/17 06:27:07;;;;;;;150.20;56.70;;;;;;;4.42;77.38;99730.67;2257481;78;21805;-76
2020/12/17 06:30:08;;;;;;;119.97;52.40;;;;;;;4.46;77.52;99736.88;2251203;78;21268;-76
2020/12/17 06:33:09;;;;;;;123.40;51.40;;;;;;;4.45;77.43;99735.11;2251462;78;21906;-77
2020/12/17 06:36:10;;;;;;;123.50;51.43;;;;;;;4.42;77.46;99730.67;2250876;78;21252;-79
2020/12/17 06:39:11;;;;;;;116.50;49.70;;;;;;;4.45;77.54;99729.94;2251281;78;21248;-76
2020/12/17 06:42:12;;;;;;;108.13;47.70;;;;;;;4.43;77.43;99733.73;2249747;78;21279;-76
2020/12/17 06:45:14;;;;;;;113.07;50.13;;;;;;;4.39;77.39;99734.80;2251308;78;21268;-78
2020/12/17 06:48:15;;;;;;;111.50;48.03;;;;;;;4.37;77.45;99728.67;2251003;78;21295;-76
2020/12/17 06:51:16;;;;;;;108.90;49.17;;;;;;;4.35;77.55;99735.46;2252140;78;21490;-77
2020/12/17 06:54:17;;;;;;;122.43;49.77;;;;;;;4.32;77.66;99737.45;2251259;79;21268;-76
2020/12/17 06:57:18;;;;;;;118.60;50.93;;;;;;;4.30;77.71;99745.53;2250286;78;21102;-77
2020/12/17 07:00:19;;;;;;;114.23;48.93;;;;;;;4.29;77.80;99755.39;2251354;78;21573;-77
2020/12/17 07:03:20;;;;;;;118.10;50.83;;;;;;;4.27;77.82;99759.59;2251408;78;21145;-77
2020/12/17 07:06:21;;;;;;;112.13;50.03;;;;;;;4.34;77.87;99764.30;2251280;78;21117;-78
2020/12/17 07:09:22;;;;;;;115.57;52.27;;;;;;;4.61;80.39;99772.96;2250581;78;21301;-78
2020/12/17 07:12:23;;;;;;;118.33;53.57;;;;;;;4.97;77.72;99767.41;2251193;79;21106;-77
2020/12/17 07:15:24;;;;;;;118.87;52.30;;;;;;;4.89;77.23;99772.22;2251000;78;21177;-77
2020/12/17 07:18:26;;;;;;;118.90;51.77;;;;;;;4.78;76.91;99775.98;2251019;78;21232;-76
2020/12/17 07:21:27;;;;;;;127.93;53.47;;;;;;;4.65;77.06;99766.73;2251260;79;21126;-77
2020/12/17 07:24:28;;;;;;;125.50;53.80;;;;;;;4.60;77.21;99765.61;2251549;78;21583;-77
2020/12/17 07:27:29;;;;;;;113.10;51.50;;;;;;;4.62;77.19;99762.70;2252805;78;21114;-77
2020/12/17 07:30:30;;;;;;;111.27;52.43;;;;;;;5.92;85.15;99758.13;2250933;78;21264;-77
2020/12/17 07:33:31;;;;;;;111.27;53.40;;;;;;;6.67;76.45;99757.52;2251379;78;21720;-77
2020/12/17 07:36:32;;;;;;;110.70;50.37;;;;;;;6.27;74.98;99764.90;2251887;78;21542;-78
2020/12/17 07:39:33;;;;;;;98.43;44.23;;;;;;;5.87;74.49;99760.01;2251641;78;21236;-76
2020/12/17 07:42:34;;;;;;;111.37;50.47;;;;;;;5.48;74.68;99761.67;2251552;78;21153;-77
2020/12/17 07:45:35;;;;;;;112.73;51.80;;;;;;;5.23;75.23;99763.52;2251401;78;21093;-78
2020/12/17 07:48:36;;;;;;;113.47;51.83;;;;;;;5.17;75.55;99767.96;2250181;78;21815;-77
2020/12/17 07:51:38;;;;;;;116.67;54.03;;;;;;;5.08;75.71;99764.53;2250140;78;21148;-78
2020/12/17 07:54:39;;;;;;;107.63;50.20;;;;;;;5.02;75.96;99759.06;2249840;78;21636;-81
2020/12/17 07:57:40;;;;;;;110.83;50.67;;;;;;;4.98;75.95;99770.48;2252184;78;21106;-80
2020/12/17 08:00:42;;;;;;;103.03;48.10;;;;;;;4.89;76.09;99772.63;2253115;78;21499;-80
2020/12/17 08:03:43;;;;;;;98.13;45.10;;;;;;;4.88;76.29;99773.03;2253346;79;21268;-80
2020/12/17 08:06:44;;;;;;;84.47;41.47;;;;;;;4.92;76.41;99774.95;2252178;78;21110;-79
2020/12/17 08:09:45;;;;;;;80.57;37.50;;;;;;;4.89;76.26;99764.86;2251810;78;21117;-81
2020/12/17 08:12:47;;;;;;;86.93;41.27;;;;;;;4.81;76.20;99760.61;2253131;78;21124;-78
2020/12/17 08:15:48;;;;;;;86.90;39.53;;;;;;;4.77;76.40;99765.15;2252540;78;21303;-79
2020/12/17 08:18:49;;;;;;;79.23;36.40;;;;;;;4.75;76.42;99761.60;2252992;78;21129;-78
2020/12/17 08:21:50;;;;;;;80.13;33.60;;;;;;;4.70;76.44;99769.13;2251455;78;21133;-79
2020/12/17 08:24:51;;;;;;;145.70;37.50;;;;;;;4.66;76.40;99768.91;2252250;78;21469;-80
2020/12/17 08:27:52;;;;;;;279.13;49.03;;;;;;;4.80;79.77;99762.72;2252575;78;21548;-81
2020/12/17 08:30:53;;;;;;;123.00;37.77;;;;;;;8.84;89.53;99757.56;2258422;78;21255;-79
2020/12/17 08:33:54;;;;;;;174.77;43.40;;;;;;;11.47;82.20;99755.94;2258619;78;21796;-80
2020/12/17 08:36:55;;;;;;;104.73;39.17;;;;;;;13.32;72.67;99744.73;2259455;78;21129;-79
2020/12/17 08:39:57;;;;;;;89.20;40.93;;;;;;;14.46;65.17;99748.44;2258267;78;21113;-79
2020/12/17 08:42:58;;;;;;;82.03;40.70;;;;;;;15.09;58.84;99754.76;2258712;78;21129;-79
2020/12/17 08:45:59;;;;;;;78.52;38.98;;;;;;;15.54;55.67;99762.53;2259570;78;21137;-78
2020/12/17 08:49:00;;;;;;;78.85;39.73;;;;;;;15.77;49.60;99751.78;2258932;78;21145;-76
2020/12/17 08:52:01;;;;;;;78.42;41.50;;;;;;;15.86;50.53;99764.98;2257527;78;21239;-77
2020/12/17 08:55:02;;;;;;;72.40;39.63;;;;;;;13.77;49.85;99764.61;2258058;78;21754;-78
2020/12/17 08:58:03;;;;;;;76.42;41.83;;;;;;;11.48;52.38;99773.81;2257151;78;21247;-76
2020/12/17 09:01:04;;;;;;;72.83;41.53;;;;;;;9.76;54.91;99777.88;2257272;78;21283;-78
2020/12/17 09:04:05;;;;;;;83.90;45.47;;;;;;;8.62;57.37;99780.65;2257977;78;21262;-78
2020/12/17 09:07:07;;;;;;;81.93;46.57;;;;;;;7.76;59.27;99790.91;2256772;78;21266;-78
2020/12/17 09:10:08;;;;;;;84.23;46.67;;;;;;;7.20;61.10;99786.98;2257846;79;21121;-78
2020/12/17 09:13:09;;;;;;;85.00;49.20;;;;;;;6.85;62.33;99785.52;2257813;78;21391;-78
2020/12/17 09:16:12;;;;;;;91.33;50.83;;;;;;;6.63;63.37;99786.75;2257673;79;21116;-79
2020/12/17 09:19:13;;;;;;;90.23;50.60;;;;;;;6.46;64.28;99791.62;2256845;78;21125;-78
2020/12/17 09:22:14;;;;;;;93.43;51.57;;;;;;;6.29;64.82;99793.08;2257072;78;21458;-78
2020/12/17 09:25:15;;;;;;;90.03;47.13;;;;;;;6.23;65.56;99792.81;2257502;78;21085;-79
2020/12/17 09:28:16;;;;;;;91.93;52.00;;;;;;;6.19;66.22;99788.31;2257194;78;21291;-78
2020/12/17 09:31:17;;;;;;;89.97;52.17;;;;;;;6.14;66.15;99783.33;2261300;78;21291;-79
2020/12/17 09:34:18;;;;;;;94.90;51.73;;;;;;;6.03;66.06;99773.75;2260610;78;21165;-79
2020/12/17 09:37:19;;;;;;;88.23;51.37;;;;;;;5.97;66.62;99774.78;2260478;78;21129;-78
2020/12/17 09:40:21;;;;;;;94.00;55.20;;;;;;;5.94;66.62;99781.52;2260938;78;21259;-78
2020/12/17 09:43:22;;;;;;;106.83;57.77;;;;;;;5.93;67.02;99779.34;2260893;78;21275;-80
2020/12/17 09:46:23;;;;;;;90.03;54.10;;;;;;;5.85;67.47;99783.67;2261009;78;21556;-78
2020/12/17 09:49:24;;;;;;;88.87;52.30;;;;;;;5.75;67.75;99784.55;2260941;78;21255;-78
2020/12/17 09:52:25;;;;;;;92.43;52.97;;;;;;;5.73;67.76;99778.41;2260348;78;21430;-78
2020/12/17 09:55:26;;;;;;;93.83;50.83;;;;;;;5.67;67.87;99774.24;2261216;78;21177;-79
2020/12/17 09:58:27;;;;;;;96.33;53.47;;;;;;;5.66;68.09;99771.17;2261721;78;21229;-78
2020/12/17 10:01:29;;;;;;;91.57;54.20;;;;;;;5.62;68.38;99764.08;2262095;78;21465;-79
2020/12/17 10:04:30;;;;;;;89.37;53.33;;;;;;;5.50;68.53;99759.63;2261433;78;21121;-78
2020/12/17 10:07:31;;;;;;;90.30;53.50;;;;;;;5.50;68.53;99759.63;2261994;78;21903;-78
2020/12/17 10:10:34;;;;;;;99.43;56.93;;;;;;;5.49;68.74;99759.16;2262010;78;21257;-77
2020/12/17 10:13:35;;;;;;;90.03;52.93;;;;;;;5.50;68.77;99757.05;2261252;78;21272;-79
2020/12/17 10:16:36;;;;;;;85.37;48.87;;;;;;;5.54;69.01;99758.95;2262080;78;21144;-79
2020/12/17 10:19:38;;;;;;;89.13;51.50;;;;;;;5.57;69.20;99756.51;2261590;78;21267;-80
2020/12/17 10:22:39;;;;;;;91.93;52.53;;;;;;;5.58;69.06;99750.92;2261389;78;21882;-78
2020/12/17 10:25:42;;;;;;;98.23;57.00;;;;;;;5.56;68.84;99752.55;2261494;78;21121;-79
2020/12/17 10:28:43;;;;;;;97.60;55.13;;;;;;;5.54;69.11;99744.71;2260542;78;21287;-79
2020/12/17 10:31:47;;;;;;;94.23;55.00;;;;;;;5.63;69.33;99754.20;2261324;78;21129;-79
2020/12/17 10:34:47;;;;;;;86.37;51.20;;;;;;;5.75;69.42;99750.87;2261812;79;21276;-78
2020/12/17 10:37:48;;;;;;;89.40;52.03;;;;;;;5.76;69.26;99755.64;2262492;78;21097;-80
2020/12/17 10:40:49;;;;;;;78.53;46.53;;;;;;;5.80;68.91;99745.89;2261594;78;21243;-77
2020/12/17 10:43:50;;;;;;;71.87;43.00;;;;;;;5.80;68.91;99745.89;2261656;78;21843;-78
2020/12/17 10:46:51;;;;;;;78.40;46.30;;;;;;;5.85;68.69;99747.39;2262056;78;21275;-78
2020/12/17 10:49:52;;;;;;;75.00;46.00;;;;;;;5.97;68.46;99745.38;2262040;78;21247;-78
2020/12/17 10:52:53;;;;;;;74.47;45.17;;;;;;;6.07;68.50;99743.70;2262284;78;21120;-77
2020/12/17 10:55:56;;;;;;;75.50;46.50;;;;;;;6.13;68.54;99742.67;2262258;79;21275;-78
2020/12/17 10:58:58;;;;;;;73.50;45.37;;;;;;;6.44;68.14;99740.10;2261746;78;21260;-77
2020/12/17 11:05:16;;;;;;;66.67;40.83;;;;;;;6.65;68.06;99738.41;2270701;77;23265;-78
2020/12/17 11:08:17;;;;;;;55.63;35.10;;;;;;;6.64;67.18;99731.44;2263275;78;21585;-76
2020/12/17 11:11:19;;;;;;;54.13;33.80;;;;;;;6.64;67.18;99731.44;2264418;78;21236;-76
2020/12/17 11:14:20;;;;;;;53.87;34.63;;;;;;;6.46;66.50;99738.05;2263906;78;22081;-77
2020/12/17 11:17:21;;;;;;;53.37;36.23;;;;;;;6.44;66.86;99742.69;2265010;78;21311;-77
2020/12/17 11:20:22;;;;;;;59.57;37.73;;;;;;;6.48;67.13;99740.70;2264399;78;21399;-76
2020/12/17 11:23:23;;;;;;;60.77;36.70;;;;;;;6.53;67.14;99736.19;2264941;78;21156;-78
2020/12/17 11:26:24;;;;;;;64.20;40.80;;;;;;;6.55;66.94;99740.14;2265213;78;21260;-77
2020/12/17 11:29:25;;;;;;;64.97;38.57;;;;;;;6.56;67.19;99739.31;2264713;78;21129;-76
2020/12/17 11:32:26;;;;;;;54.07;36.50;;;;;;;6.65;67.08;99743.18;2264760;78;21285;-76
2020/12/17 11:35:27;;;;;;;61.13;38.23;;;;;;;6.66;66.83;99742.77;2265641;78;21115;-76
2020/12/17 11:38:30;;;;;;;58.87;37.73;;;;;;;6.62;66.67;99740.88;2265548;78;21098;-76
2020/12/17 11:41:31;;;;;;;57.57;38.73;;;;;;;6.64;66.89;99744.00;2265276;78;21557;-76
2020/12/17 11:44:32;;;;;;;58.87;37.47;;;;;;;6.68;67.26;99742.42;2265953;78;21291;-77
2020/12/17 11:47:33;;;;;;;55.50;36.43;;;;;;;6.72;67.03;99741.73;2265947;78;21553;-76
2020/12/17 11:50:35;;;;;;;53.47;35.93;;;;;;;6.74;66.87;99731.41;2264761;78;21245;-76
2020/12/17 11:53:36;;;;;;;54.27;33.43;;;;;;;6.73;66.63;99737.01;2265319;78;21244;-76
2020/12/17 11:56:37;;;;;;;50.83;31.03;;;;;;;6.67;66.55;99734.16;2265992;78;21086;-77
2020/12/17 11:59:39;;;;;;;52.53;32.83;;;;;;;6.62;66.37;99725.30;2266594;78;21613;-76
2020/12/17 12:02:41;;;;;;;50.80;34.77;;;;;;;6.56;66.76;99725.05;2266054;78;21173;-76
2020/12/17 12:05:42;;;;;;;52.33;33.80;;;;;;;6.52;67.03;99721.86;2262712;78;21263;-76
2020/12/17 12:08:44;;;;;;;49.93;33.70;;;;;;;6.51;66.71;99717.48;2261532;78;22056;-76
2020/12/17 12:11:45;;;;;;;49.57;32.30;;;;;;;6.51;66.71;99717.48;2262938;78;21663;-75
2020/12/17 12:14:46;;;;;;;48.93;31.70;;;;;;;6.48;66.83;99722.55;2262850;78;21240;-76
2020/12/17 12:17:47;;;;;;;43.47;29.57;;;;;;;6.42;67.21;99723.17;2261777;79;21252;-75
2020/12/17 12:20:48;;;;;;;49.57;31.90;;;;;;;6.34;67.45;99715.48;2260015;79;21517;-75
2020/12/17 12:23:49;;;;;;;49.27;31.77;;;;;;;6.34;67.45;99715.48;2261214;79;21275;-75
2020/12/17 12:26:50;;;;;;;44.93;29.63;;;;;;;6.35;67.28;99719.44;2261195;79;21263;-74
2020/12/17 12:29:51;;;;;;;49.70;30.60;;;;;;;6.39;69.04;99711.37;2261509;79;21766;-76
2020/12/17 12:32:52;;;;;;;44.87;29.93;;;;;;;6.39;69.04;99711.37;2262224;79;21173;-73
2020/12/17 12:35:54;;;;;;;43.67;29.30;;;;;;;6.58;67.44;99712.62;2262042;79;21252;-75
2020/12/17 12:38:55;;;;;;;42.13;28.37;;;;;;;6.53;67.52;99714.14;2260437;79;21576;-75
2020/12/17 12:41:56;;;;;;;43.20;29.20;;;;;;;6.50;67.50;99713.13;2260783;79;21251;-75
2020/12/17 12:44:57;;;;;;;46.17;30.57;;;;;;;6.46;67.36;99706.92;2260815;79;21271;-75
2020/12/17 12:47:58;;;;;;;45.87;30.27;;;;;;;6.38;67.15;99700.12;2261389;79;21256;-75
2020/12/17 12:51:02;;;;;;;48.40;31.13;;;;;;;6.28;67.12;99694.48;2260248;79;21106;-75
2020/12/17 12:54:05;;;;;;;43.27;27.80;;;;;;;6.16;67.22;99693.97;2261015;79;21086;-75
2020/12/17 12:57:11;;;;;;;43.23;28.47;;;;;;;6.08;67.34;99697.52;2260244;79;21499;-75
2020/12/17 13:00:13;;;;;;;51.77;31.90;;;;;;;6.01;67.39;99690.27;2260060;79;21302;-78
2020/12/17 13:03:15;;;;;;;44.50;29.77;;;;;;;5.92;67.67;99695.05;2259993;79;22168;-77
2020/12/17 13:06:16;;;;;;;45.03;30.23;;;;;;;5.88;67.88;99688.82;2256887;79;21570;-77
2020/12/17 13:09:17;;;;;;;47.20;31.07;;;;;;;5.90;68.11;99687.63;2257165;79;21522;-76
2020/12/17 13:12:18;;;;;;;46.37;30.53;;;;;;;5.84;67.82;99680.44;2257173;79;22053;-76
2020/12/17 13:15:19;;;;;;;46.87;31.17;;;;;;;5.72;68.04;99689.85;2257440;79;21141;-76
2020/12/17 13:18:20;;;;;;;47.73;29.37;;;;;;;5.66;67.98;99680.92;2257819;79;21472;-76
2020/12/17 13:21:21;;;;;;;42.27;28.53;;;;;;;5.59;68.49;99684.95;2257054;79;21573;-76
2020/12/17 13:24:23;;;;;;;45.37;30.57;;;;;;;5.57;68.61;99688.28;2258337;79;21307;-76
2020/12/17 13:27:26;;;;;;;46.43;28.40;;;;;;;5.56;68.83;99680.04;2258498;79;21542;-76
2020/12/17 13:30:27;;;;;;;46.37;29.53;;;;;;;5.55;68.83;99675.27;2259059;79;21526;-75
2020/12/17 13:33:28;;;;;;;43.60;28.93;;;;;;;5.50;68.90;99669.00;2258079;79;21306;-75
2020/12/17 13:36:29;;;;;;;48.80;31.87;;;;;;;5.48;69.00;99674.92;2258038;79;21571;-78
2020/12/17 13:39:31;;;;;;;48.43;31.40;;;;;;;5.48;69.39;99671.92;2258799;79;21518;-76
2020/12/17 13:42:32;;;;;;;45.07;29.83;;;;;;;5.49;69.42;99674.99;2259135;79;21256;-76
2020/12/17 13:45:33;;;;;;;52.93;32.47;;;;;;;5.44;69.33;99676.08;2258513;79;21274;-76
2020/12/17 13:48:34;;;;;;;46.07;28.57;;;;;;;5.40;69.58;99677.17;2258693;79;21228;-76
2020/12/17 13:51:35;;;;;;;46.57;30.10;;;;;;;5.39;69.68;99674.98;2259423;79;21518;-77
2020/12/17 13:54:37;;;;;;;39.83;26.67;;;;;;;5.39;69.64;99671.52;2259148;79;21398;-75
2020/12/17 13:57:38;;;;;;;36.23;25.90;;;;;;;5.37;69.46;99674.44;2259369;79;21295;-76